Moundridge, Kansas
Current Conditions -  °F | °C
As of 7:35 PM on Monday 20 Oct 2014 (Local Time) from KEWK Reporting Station
Clear Clear  
Wind Chill: 66°   Ceiling: Unl
Heat Index: 66°   Visibility: 10mi
Dew Point: 43°   Wind: 6mph
Humidity: 43%   Direction: 30°NNE
Pressure: 30.08"   Gusts: NA
Location:  38.2°N, 97.52°W
Report Text: KEWK 210035Z AUTO 03005KT 10SM CLR 19/06 A3008 RMK AO1
Loading
Personal Weather Stations






























Interactive Weather Map
Tropical Storm Tracking
New forecast layout! Learn more

10-Day Weather Forecast

Advertisements
Track Severe Weather on mobile